KBRD

Brainerd Lakes Regional Airport

Brainerd, Minnesota, USA
METAR KBRD 241453Z AUTO 06008KT 10SM CLR 18/11 A2996 RMK AO2 SLP144 T01830106 50017
Observed Flight Rules
Jun-24 @ 14:53 UTC (12 minutes ago) Visual Flight Rules
Wind Visibility Clouds
60° at 8 knots 10 miles
  • Clear skies
Temperatures Readings
Current 18°C / 64°F
Dewpoint 11°C / 52°F
Humidity 64%
Altimeter 29.96" Hg
Pressure 1014.4 hPa
Elevation 372
METAR KBRD 241453Z AUTO 06008KT 10SM CLR 18/11 A2996 RMK AO2 SLP144 T01830106 50017
Observed Flight Rules
Jun-24 @ 14:53 UTC
(12 minutes ago)
VFR
Wind Visibility
60° at 8 knots 10 miles
Clouds
  • Clear skies
Temperature Dewpoint
18°C / 64°F 11°C / 52°F
Humidity Altimeter Pressure
64% 29.96" Hg 1014.4 hPa